createdAt,value
2022-12-01T00:01:09.065Z,48.55
2022-12-01T00:03:36.134Z,48.13
2022-12-01T00:06:05.511Z,49.00
2022-12-01T00:08:33.305Z,47.15
2022-12-01T00:11:12.195Z,48.55
2022-12-01T00:13:38.884Z,49.70
2022-12-01T00:16:13.482Z,49.80
2022-12-01T00:18:40.537Z,48.53
2022-12-01T00:21:14.393Z,49.60
2022-12-01T00:23:49.565Z,49.60
2022-12-01T00:26:17.762Z,48.47
2022-12-01T00:28:44.750Z,50.10
2022-12-01T00:31:12.884Z,48.70
2022-12-01T00:33:40.000Z,49.35
2022-12-01T00:36:07.467Z,50.33
2022-12-01T00:38:35.172Z,50.38
2022-12-01T00:41:02.220Z,51.80
2022-12-01T00:43:28.881Z,48.58
2022-12-01T00:45:56.577Z,50.08
2022-12-01T00:48:23.385Z,50.03
2022-12-01T00:50:54.224Z,51.20
2022-12-01T00:53:22.694Z,49.38
2022-12-01T00:55:49.546Z,50.03
2022-12-01T00:58:16.318Z,50.22
2022-12-01T01:00:47.440Z,49.45
2022-12-01T01:03:14.200Z,50.67
2022-12-01T01:05:42.527Z,48.10
2022-12-01T01:08:11.303Z,49.63
2022-12-01T01:10:42.476Z,49.00
2022-12-01T01:13:09.860Z,50.35
2022-12-01T01:15:37.206Z,50.50
2022-12-01T01:18:04.923Z,50.55
2022-12-01T01:20:32.235Z,50.03
2022-12-01T01:22:59.385Z,49.85
2022-12-01T01:25:26.339Z,50.53
2022-12-01T01:27:53.004Z,48.63
2022-12-01T01:30:20.078Z,51.53
2022-12-01T01:32:46.730Z,51.85
2022-12-01T01:35:13.373Z,50.90
2022-12-01T01:37:40.031Z,50.05
2022-12-01T01:40:07.151Z,52.40
2022-12-01T01:42:33.940Z,51.00
2022-12-01T01:45:02.211Z,50.95
2022-12-01T01:47:36.835Z,50.58
2022-12-01T01:50:15.923Z,51.03
2022-12-01T01:52:48.273Z,52.45
2022-12-01T01:55:15.892Z,50.97
2022-12-01T01:57:44.170Z,51.47
2022-12-01T02:00:18.133Z,52.50
2022-12-01T02:02:46.921Z,51.72
2022-12-01T02:05:24.781Z,51.33
2022-12-01T02:07:55.291Z,52.53
2022-12-01T02:10:29.723Z,52.67
2022-12-01T02:13:09.875Z,52.28
2022-12-01T02:15:51.435Z,52.10
2022-12-01T02:18:35.040Z,51.63
2022-12-01T02:21:27.622Z,51.90
2022-12-01T02:24:32.942Z,51.92
2022-12-01T02:27:02.522Z,52.00
2022-12-01T02:29:47.880Z,52.75
2022-12-01T02:32:20.650Z,52.92
2022-12-01T02:35:05.658Z,51.50
2022-12-01T02:38:00.045Z,52.95
2022-12-01T02:40:45.144Z,53.35
2022-12-01T02:43:41.422Z,52.30
2022-12-01T02:46:15.391Z,52.85
2022-12-01T02:48:49.272Z,53.13
2022-12-01T02:51:29.680Z,53.40
2022-12-01T02:54:02.269Z,53.38
2022-12-01T02:56:29.494Z,53.92
2022-12-01T02:58:56.484Z,54.78
2022-12-01T03:01:46.456Z,54.65
2022-12-01T03:04:19.257Z,52.05
2022-12-01T03:07:13.406Z,52.38
2022-12-01T03:10:08.884Z,53.33
2022-12-01T03:13:03.312Z,52.83
2022-12-01T03:15:48.518Z,53.05
2022-12-01T03:18:27.051Z,52.63
2022-12-01T03:20:56.340Z,53.38
2022-12-01T03:23:27.509Z,51.78
2022-12-01T03:25:56.435Z,52.60
2022-12-01T03:28:31.093Z,53.70
2022-12-01T03:31:04.119Z,53.15
2022-12-01T03:33:43.318Z,52.60
2022-12-01T03:36:20.834Z,52.97
2022-12-01T03:38:55.057Z,53.33
2022-12-01T03:41:29.806Z,54.83
2022-12-01T03:44:06.050Z,53.45
2022-12-01T03:46:42.505Z,52.53
2022-12-01T03:49:09.804Z,52.33
2022-12-01T03:52:11.674Z,53.03
2022-12-01T03:54:58.134Z,53.42
2022-12-01T03:57:30.158Z,51.40
2022-12-01T03:59:57.048Z,51.25
2022-12-01T04:02:27.759Z,50.70
2022-12-01T04:04:54.445Z,51.55
2022-12-01T04:07:22.739Z,52.42
2022-12-01T04:09:50.014Z,54.08
2022-12-01T04:12:33.178Z,52.22
2022-12-01T04:15:02.643Z,53.25
2022-12-01T04:17:29.388Z,51.80
2022-12-01T04:19:58.631Z,54.28
2022-12-01T04:22:25.952Z,54.05
2022-12-01T04:24:53.279Z,52.88
2022-12-01T04:27:20.575Z,54.22
2022-12-01T04:29:47.563Z,53.45
2022-12-01T04:32:14.727Z,52.88
2022-12-01T04:34:41.372Z,52.10
2022-12-01T04:37:09.941Z,53.70
2022-12-01T04:39:36.857Z,52.38
2022-12-01T04:42:04.523Z,52.85
2022-12-01T04:44:34.751Z,52.88
2022-12-01T04:47:02.855Z,53.03
2022-12-01T04:49:29.580Z,51.67
2022-12-01T04:51:56.285Z,53.63
2022-12-01T04:54:23.611Z,52.33
2022-12-01T04:56:50.516Z,53.85
2022-12-01T04:59:17.606Z,52.88
2022-12-01T05:01:44.783Z,53.17
2022-12-01T05:04:13.315Z,53.05
2022-12-01T05:06:42.402Z,53.88
2022-12-01T05:09:16.893Z,53.60
2022-12-01T05:11:44.399Z,52.75
2022-12-01T05:14:11.031Z,51.72
2022-12-01T05:16:37.731Z,55.63
2022-12-01T05:19:24.585Z,55.03
2022-12-01T05:21:52.316Z,52.70
2022-12-01T05:24:20.366Z,53.67
2022-12-01T05:26:47.241Z,53.45
2022-12-01T05:29:14.140Z,53.08
2022-12-01T05:31:41.203Z,53.60
2022-12-01T05:34:08.190Z,55.67
2022-12-01T05:36:34.832Z,53.83
2022-12-01T05:39:01.477Z,53.88
2022-12-01T05:41:28.110Z,54.47
2022-12-01T05:43:54.798Z,56.13
2022-12-01T05:46:21.492Z,54.70
2022-12-01T05:48:48.325Z,54.70
2022-12-01T05:51:16.642Z,54.25
2022-12-01T05:53:44.231Z,54.03
2022-12-01T05:56:11.224Z,53.88
2022-12-01T05:58:37.970Z,54.42
2022-12-01T06:01:04.857Z,54.70
2022-12-01T06:03:31.519Z,53.80
2022-12-01T06:05:58.187Z,55.50
2022-12-01T06:08:24.922Z,54.97
2022-12-01T06:10:51.593Z,54.97
2022-12-01T06:13:18.251Z,55.35
2022-12-01T06:15:44.891Z,55.78
2022-12-01T06:18:11.504Z,54.10
2022-12-01T06:20:38.169Z,54.47
2022-12-01T06:23:04.808Z,55.30
2022-12-01T06:25:31.521Z,54.58
2022-12-01T06:27:58.972Z,54.72
2022-12-01T06:30:26.263Z,56.28
2022-12-01T06:32:52.955Z,52.15
2022-12-01T06:35:20.449Z,52.33
2022-12-01T06:37:47.082Z,55.05
2022-12-01T06:40:14.126Z,51.67
2022-12-01T06:42:40.786Z,53.05
2022-12-01T06:45:07.938Z,54.00
2022-12-01T06:47:34.881Z,53.03
2022-12-01T06:50:02.210Z,52.08
2022-12-01T06:52:28.997Z,54.25
2022-12-01T06:54:55.640Z,54.35
2022-12-01T06:57:22.503Z,53.80
2022-12-01T06:59:49.575Z,54.28
2022-12-01T07:02:17.250Z,54.92
2022-12-01T07:04:43.979Z,52.53
2022-12-01T07:07:12.041Z,53.15
2022-12-01T07:09:39.614Z,54.63
2022-12-01T07:12:06.627Z,54.15
2022-12-01T07:14:33.360Z,55.65
2022-12-01T07:17:00.153Z,56.08
2022-12-01T07:19:26.887Z,56.90
2022-12-01T07:21:53.504Z,53.78
2022-12-01T07:24:20.392Z,55.00
2022-12-01T07:26:48.005Z,53.88
2022-12-01T07:29:14.711Z,54.90
2022-12-01T07:31:41.414Z,54.03
2022-12-01T07:34:13.218Z,55.00
2022-12-01T07:36:39.852Z,54.33
2022-12-01T07:39:08.226Z,54.50
2022-12-01T07:41:35.738Z,53.63
2022-12-01T07:44:02.876Z,54.47
2022-12-01T07:46:29.767Z,53.67
2022-12-01T07:48:57.390Z,53.92
2022-12-01T07:51:25.334Z,53.15
2022-12-01T07:53:53.405Z,52.42
2022-12-01T07:56:21.195Z,52.03
2022-12-01T07:58:48.282Z,52.85
2022-12-01T08:01:18.139Z,52.80
2022-12-01T08:03:45.354Z,52.55
2022-12-01T08:06:12.226Z,50.50
2022-12-01T08:08:40.632Z,51.67
2022-12-01T08:11:11.319Z,51.28
2022-12-01T08:13:38.968Z,53.15
2022-12-01T08:16:07.380Z,53.58
2022-12-01T08:18:38.938Z,52.42
2022-12-01T08:21:07.718Z,51.03
2022-12-01T08:23:34.566Z,51.53
2022-12-01T08:26:06.836Z,51.20
2022-12-01T08:28:36.020Z,51.88
2022-12-01T08:31:19.870Z,51.15
2022-12-01T08:33:48.268Z,50.42
2022-12-01T08:36:15.711Z,52.00
2022-12-01T08:38:46.748Z,50.30
2022-12-01T08:41:15.093Z,48.65
2022-12-01T08:44:00.349Z,49.03
2022-12-01T08:46:31.371Z,50.57
2022-12-01T08:48:58.402Z,50.08
2022-12-01T08:51:25.495Z,48.97
2022-12-01T08:53:52.150Z,48.85
2022-12-01T08:56:24.108Z,49.38
2022-12-01T08:58:51.755Z,48.00
2022-12-01T09:01:19.476Z,44.35
2022-12-01T09:03:46.696Z,43.72
2022-12-01T09:06:21.886Z,42.50
2022-12-01T09:08:48.674Z,44.42
2022-12-01T09:11:19.302Z,43.60
2022-12-01T09:13:52.934Z,43.80
2022-12-01T09:16:21.494Z,44.15
2022-12-01T09:18:48.596Z,43.22
2022-12-01T09:21:32.750Z,44.20
2022-12-01T09:24:01.184Z,45.65
2022-12-01T09:26:28.470Z,43.58
2022-12-01T09:29:00.027Z,40.83
2022-12-01T09:31:27.498Z,41.13
2022-12-01T09:33:59.584Z,41.67
2022-12-01T09:36:28.163Z,41.28
2022-12-01T09:38:54.838Z,42.38
2022-12-01T09:41:24.363Z,42.05
2022-12-01T09:44:17.208Z,40.47
2022-12-01T09:46:50.191Z,41.30
2022-12-01T09:49:44.366Z,40.58
2022-12-01T09:52:17.153Z,39.22
2022-12-01T09:54:43.845Z,40.15
2022-12-01T09:57:32.666Z,37.67
2022-12-01T10:00:03.598Z,38.33
2022-12-01T10:02:41.777Z,40.33
2022-12-01T10:05:23.167Z,39.22
2022-12-01T10:07:59.897Z,38.80
2022-12-01T10:10:40.519Z,38.13
2022-12-01T10:13:25.850Z,35.17
2022-12-01T10:16:31.647Z,33.05
2022-12-01T10:19:22.609Z,31.27
2022-12-01T10:22:03.630Z,28.80
2022-12-01T10:24:53.688Z,28.45
2022-12-01T10:27:43.593Z,28.38
2022-12-01T10:30:25.223Z,26.63
2022-12-01T10:32:59.053Z,26.98
2022-12-01T10:35:36.047Z,26.13
2022-12-01T10:38:13.299Z,26.42
2022-12-01T10:40:41.509Z,27.30
2022-12-01T10:43:10.446Z,27.02
2022-12-01T10:45:45.520Z,26.25
2022-12-01T10:48:20.874Z,29.17
2022-12-01T10:50:52.951Z,26.75
2022-12-01T10:53:22.362Z,27.58
2022-12-01T10:56:15.141Z,28.13
2022-12-01T10:58:44.993Z,27.88
2022-12-01T11:01:37.000Z,28.23
2022-12-01T11:04:21.305Z,28.92
2022-12-01T11:06:51.704Z,28.63
2022-12-01T11:09:26.230Z,27.65
2022-12-01T11:11:59.617Z,29.75
2022-12-01T11:14:51.008Z,30.08
2022-12-01T11:17:29.847Z,29.85
2022-12-01T11:19:56.673Z,30.40
2022-12-01T11:22:34.349Z,28.35
2022-12-01T11:25:02.553Z,27.83
2022-12-01T11:27:50.841Z,26.60
2022-12-01T11:30:26.572Z,28.17
2022-12-01T11:32:57.026Z,26.88
2022-12-01T11:35:30.844Z,27.08
2022-12-01T11:38:28.341Z,26.17
2022-12-01T11:40:58.412Z,25.30
2022-12-01T11:43:26.905Z,24.98
2022-12-01T11:45:56.111Z,24.92
2022-12-01T11:48:28.731Z,25.35
2022-12-01T11:51:10.952Z,24.17
2022-12-01T11:53:40.316Z,25.17
2022-12-01T11:56:13.013Z,25.63
2022-12-01T11:58:40.002Z,25.77
2022-12-01T12:01:29.807Z,24.80
2022-12-01T12:04:06.612Z,25.23
2022-12-01T12:06:53.060Z,25.50
2022-12-01T12:09:48.075Z,25.83
2022-12-01T12:12:43.882Z,26.75
2022-12-01T12:15:34.123Z,26.80
2022-12-01T12:18:22.328Z,26.92
2022-12-01T12:20:57.901Z,26.95
2022-12-01T12:23:27.461Z,27.25
2022-12-01T12:26:00.471Z,27.58
2022-12-01T12:29:13.664Z,27.42
2022-12-01T12:31:55.883Z,28.25
2022-12-01T12:34:29.007Z,28.85
2022-12-01T12:37:18.818Z,29.30
2022-12-01T12:40:22.223Z,28.02
2022-12-01T12:43:04.564Z,27.88
2022-12-01T12:45:31.163Z,26.83
2022-12-01T12:48:06.962Z,27.63
2022-12-01T12:50:54.750Z,27.27
2022-12-01T12:53:31.896Z,27.00
2022-12-01T12:56:02.772Z,28.77
2022-12-01T12:58:36.636Z,26.73
2022-12-01T13:01:13.710Z,26.02
2022-12-01T13:03:57.604Z,26.77
2022-12-01T13:06:37.507Z,27.75
2022-12-01T13:09:19.609Z,26.92
2022-12-01T13:12:04.927Z,27.90
2022-12-01T13:14:40.838Z,26.55
2022-12-01T13:17:19.485Z,25.75
2022-12-01T13:19:47.620Z,25.52
2022-12-01T13:22:16.134Z,25.05
2022-12-01T13:24:43.184Z,25.77
2022-12-01T13:27:09.757Z,25.60
2022-12-01T13:29:47.503Z,23.52
2022-12-01T13:32:34.879Z,22.20
2022-12-01T13:35:06.378Z,22.17
2022-12-01T13:37:37.758Z,22.27
2022-12-01T13:40:19.259Z,23.42
2022-12-01T13:42:57.574Z,22.38
2022-12-01T13:45:24.535Z,22.95
2022-12-01T13:47:55.840Z,21.98
2022-12-01T13:50:43.722Z,21.42
2022-12-01T13:53:27.518Z,20.90
2022-12-01T13:56:00.163Z,22.52
2022-12-01T13:58:33.019Z,22.35
2022-12-01T14:01:22.105Z,21.70
2022-12-01T14:03:56.957Z,22.23
2022-12-01T14:06:36.032Z,22.83
2022-12-01T14:09:13.670Z,20.42
2022-12-01T14:11:40.640Z,20.83
2022-12-01T14:14:12.166Z,20.48
2022-12-01T14:16:51.950Z,20.80
2022-12-01T14:19:47.274Z,22.17
2022-12-01T14:22:44.227Z,20.83
2022-12-01T14:25:20.265Z,20.55
2022-12-01T14:27:56.339Z,21.13
2022-12-01T14:30:41.297Z,22.17
2022-12-01T14:33:39.094Z,22.10
2022-12-01T14:36:10.100Z,22.20
2022-12-01T14:38:36.990Z,22.83
2022-12-01T14:41:10.505Z,22.38
2022-12-01T14:44:00.193Z,21.67
2022-12-01T14:46:29.430Z,22.10
2022-12-01T14:48:58.627Z,21.17
2022-12-01T14:51:33.320Z,20.35
2022-12-01T14:54:06.394Z,19.92
2022-12-01T14:56:34.129Z,19.88
2022-12-01T14:59:13.637Z,19.02
2022-12-01T15:01:40.880Z,18.75
2022-12-01T15:04:07.625Z,19.25
2022-12-01T15:06:36.323Z,18.45
2022-12-01T15:09:32.752Z,18.60
2022-12-01T15:12:06.837Z,18.52
2022-12-01T15:14:38.115Z,17.63
2022-12-01T15:17:06.902Z,19.33
2022-12-01T15:19:41.345Z,18.02
2022-12-01T15:22:16.561Z,17.48
2022-12-01T15:24:45.798Z,18.13
2022-12-01T15:27:29.202Z,20.27
2022-12-01T15:29:58.562Z,21.02
2022-12-01T15:32:27.106Z,19.25
2022-12-01T15:34:56.298Z,18.80
2022-12-01T15:37:26.046Z,18.55
2022-12-01T15:40:00.293Z,17.05
2022-12-01T15:42:39.532Z,17.47
2022-12-01T15:45:15.172Z,17.52
2022-12-01T15:47:43.448Z,18.00
2022-12-01T15:50:38.645Z,16.92
2022-12-01T15:53:29.393Z,17.17
2022-12-01T15:55:59.215Z,17.45
2022-12-01T15:58:32.945Z,17.92
2022-12-01T16:01:03.038Z,18.08
2022-12-01T16:03:30.535Z,17.17
2022-12-01T16:05:58.206Z,17.13
2022-12-01T16:08:27.899Z,17.33
2022-12-01T16:11:17.161Z,17.35
2022-12-01T16:13:49.661Z,18.48
2022-12-01T16:16:49.865Z,19.10
2022-12-01T16:19:16.592Z,20.67
2022-12-01T16:21:53.084Z,20.63
2022-12-01T16:26:52.980Z,23.38
2022-12-01T16:29:21.836Z,23.75
2022-12-01T16:32:19.978Z,22.27
2022-12-01T16:34:46.191Z,23.88
2022-12-01T16:37:14.804Z,25.10
2022-12-01T16:39:41.662Z,23.90
2022-12-01T16:42:12.738Z,24.67
2022-12-01T16:44:39.829Z,25.20
2022-12-01T16:47:13.906Z,24.23
2022-12-01T16:49:40.795Z,25.20
2022-12-01T16:52:42.485Z,24.65
2022-12-01T16:54:54.346Z,21.33
2022-12-01T16:57:20.945Z,21.92
2022-12-01T16:59:47.556Z,21.13
2022-12-01T17:02:14.262Z,21.70
2022-12-01T17:04:40.886Z,22.63
2022-12-01T17:07:07.536Z,23.88
2022-12-01T17:09:34.151Z,24.33
2022-12-01T17:12:00.746Z,25.25
2022-12-01T17:14:27.481Z,25.35
2022-12-01T17:16:54.163Z,26.80
2022-12-01T17:19:20.743Z,26.42
2022-12-01T17:21:47.363Z,25.27
2022-12-01T17:24:18.698Z,25.08
2022-12-01T17:26:45.817Z,27.17
2022-12-01T17:29:12.503Z,24.50
2022-12-01T17:31:39.283Z,26.25
2022-12-01T17:34:05.955Z,25.75
2022-12-01T17:36:32.581Z,25.42
2022-12-01T17:38:59.239Z,25.65
2022-12-01T17:41:32.183Z,25.77
2022-12-01T17:44:02.239Z,26.98
2022-12-01T17:46:30.287Z,25.95
2022-12-01T17:48:57.501Z,24.10
2022-12-01T17:51:24.138Z,24.67
2022-12-01T17:53:50.782Z,24.00
2022-12-01T17:56:17.646Z,25.30
2022-12-01T17:58:44.474Z,25.70
2022-12-01T18:01:17.163Z,26.08
2022-12-01T18:03:44.137Z,24.98
2022-12-01T18:06:11.831Z,26.40
2022-12-01T18:08:39.781Z,25.90
2022-12-01T18:11:10.164Z,26.10
2022-12-01T18:13:43.708Z,25.95
2022-12-01T18:16:14.938Z,25.15
2022-12-01T18:18:42.022Z,26.17
2022-12-01T18:21:10.556Z,25.65
2022-12-01T18:23:37.661Z,27.42
2022-12-01T18:26:08.645Z,26.10
2022-12-01T18:28:39.158Z,26.15
2022-12-01T18:31:07.924Z,26.80
2022-12-01T18:33:37.172Z,26.00
2022-12-01T18:36:05.299Z,26.55
2022-12-01T18:38:32.034Z,26.20
2022-12-01T18:40:59.987Z,26.52
2022-12-01T18:43:31.573Z,26.90
2022-12-01T18:45:58.734Z,26.95
2022-12-01T18:48:26.230Z,26.13
2022-12-01T18:50:59.129Z,26.02
2022-12-01T18:53:26.142Z,26.52
2022-12-01T18:55:52.800Z,27.67
2022-12-01T18:58:19.437Z,28.00
2022-12-01T19:00:46.161Z,29.35
2022-12-01T19:03:12.854Z,28.35
2022-12-01T19:05:40.376Z,30.27
2022-12-01T19:08:07.319Z,29.83
2022-12-01T19:10:33.956Z,29.50
2022-12-01T19:13:01.383Z,29.35
2022-12-01T19:15:28.202Z,29.33
2022-12-01T19:17:54.984Z,28.63
2022-12-01T19:20:21.653Z,28.95
2022-12-01T19:22:48.291Z,28.25
2022-12-01T19:25:15.049Z,28.67
2022-12-01T19:27:41.759Z,27.70
2022-12-01T19:30:08.737Z,27.60
2022-12-01T19:32:35.398Z,27.73
2022-12-01T19:35:02.075Z,29.33
2022-12-01T19:37:29.590Z,27.85
2022-12-01T19:39:56.244Z,26.92
2022-12-01T19:42:22.895Z,28.92
2022-12-01T19:44:49.759Z,29.80
2022-12-01T19:47:21.843Z,29.10
2022-12-01T19:49:48.948Z,28.70
2022-12-01T19:52:15.596Z,30.13
2022-12-01T19:54:42.711Z,28.90
2022-12-01T19:57:09.399Z,28.98
2022-12-01T19:59:36.021Z,29.33
2022-12-01T20:02:03.022Z,29.08
2022-12-01T20:04:29.799Z,29.00
2022-12-01T20:06:56.516Z,29.98
2022-12-01T20:09:23.161Z,30.35
2022-12-01T20:11:49.912Z,30.75
2022-12-01T20:14:16.604Z,30.38
2022-12-01T20:16:43.344Z,29.58
2022-12-01T20:19:10.800Z,31.13
2022-12-01T20:21:44.896Z,29.35
2022-12-01T20:24:15.207Z,29.30
2022-12-01T20:26:44.860Z,29.27
2022-12-01T20:29:15.125Z,28.58
2022-12-01T20:31:42.930Z,28.58
2022-12-01T20:34:19.287Z,28.58
2022-12-01T20:36:46.382Z,28.63
2022-12-01T20:39:14.502Z,26.92
2022-12-01T20:41:42.755Z,27.88
2022-12-01T20:44:11.205Z,26.92
2022-12-01T20:46:40.916Z,27.38
2022-12-01T20:49:08.173Z,27.88
2022-12-01T20:51:35.009Z,26.17
2022-12-01T20:54:27.300Z,30.85
2022-12-01T20:56:50.529Z,27.33
2022-12-01T20:59:17.181Z,27.02
2022-12-01T21:01:43.828Z,26.05
2022-12-01T21:04:10.489Z,26.10
2022-12-01T21:06:37.250Z,26.17
2022-12-01T21:09:04.937Z,26.80
2022-12-01T21:11:56.872Z,26.55
2022-12-01T21:14:51.735Z,25.58
2022-12-01T21:17:31.882Z,27.20
2022-12-01T21:20:05.128Z,27.92
2022-12-01T21:22:31.905Z,27.40
2022-12-01T21:25:18.664Z,28.30
2022-12-01T21:27:47.159Z,26.30
2022-12-01T21:30:17.062Z,26.30
2022-12-01T21:32:44.705Z,25.90
2022-12-01T21:35:24.680Z,25.13
2022-12-01T21:37:59.040Z,26.23
2022-12-01T21:40:27.159Z,26.70
2022-12-01T21:42:55.520Z,26.35
2022-12-01T21:45:30.148Z,26.50
2022-12-01T21:48:00.522Z,25.50
2022-12-01T21:50:27.450Z,26.08
2022-12-01T21:52:54.088Z,25.60
2022-12-01T21:55:20.827Z,26.70
2022-12-01T21:57:52.438Z,26.95
2022-12-01T22:00:29.924Z,26.23
2022-12-01T22:03:08.745Z,27.20
2022-12-01T22:06:00.980Z,26.85
2022-12-01T22:08:40.373Z,26.65
2022-12-01T22:11:13.245Z,26.92
2022-12-01T22:13:55.002Z,26.85
2022-12-01T22:16:30.825Z,26.20
2022-12-01T22:19:27.208Z,25.50
2022-12-01T22:22:16.451Z,26.58
2022-12-01T22:24:46.529Z,26.85
2022-12-01T22:27:38.049Z,28.17
2022-12-01T22:30:07.583Z,26.98
2022-12-01T22:32:48.010Z,26.92
2022-12-01T22:35:32.402Z,28.75
2022-12-01T22:38:10.925Z,28.05
2022-12-01T22:41:18.824Z,28.38
2022-12-01T22:43:45.501Z,29.52
2022-12-01T22:46:17.490Z,26.85
2022-12-01T22:48:46.955Z,28.42
2022-12-01T22:51:13.849Z,29.00
2022-12-01T22:53:42.203Z,29.33
2022-12-01T22:57:04.236Z,27.10
2022-12-01T22:59:35.681Z,29.50
2022-12-01T23:02:15.455Z,29.23
2022-12-01T23:04:46.047Z,28.92
2022-12-01T23:07:35.096Z,28.90
2022-12-01T23:10:07.783Z,30.60
2022-12-01T23:12:35.830Z,31.70
2022-12-01T23:15:21.084Z,29.67
2022-12-01T23:17:48.468Z,31.25
2022-12-01T23:20:31.883Z,28.48
2022-12-01T23:23:01.698Z,28.40
2022-12-01T23:25:28.537Z,29.90
2022-12-01T23:27:59.551Z,29.30
2022-12-01T23:30:26.344Z,29.17
2022-12-01T23:33:01.704Z,27.83
2022-12-01T23:35:28.661Z,29.55
2022-12-01T23:37:55.947Z,30.30
2022-12-01T23:40:35.002Z,29.00
2022-12-01T23:43:23.251Z,30.88
2022-12-01T23:46:03.195Z,30.90
2022-12-01T23:48:35.301Z,29.10
2022-12-01T23:51:02.498Z,31.88
2022-12-01T23:53:32.105Z,30.55
2022-12-01T23:56:10.017Z,31.55
2022-12-01T23:58:36.621Z,30.02
